sensor_id;sensor_type;location;lat;lon;timestamp;P1;durP1;ratioP1;P2;durP2;ratioP2
67602;SDS011;54417;47.454;18.918;2023-01-13T00:04:21;32.55;;;18.90;;
67602;SDS011;54417;47.454;18.918;2023-01-13T00:09:47;31.42;;;18.30;;
67602;SDS011;54417;47.454;18.918;2023-01-13T00:15:10;30.77;;;17.00;;
67602;SDS011;54417;47.454;18.918;2023-01-13T00:20:35;23.45;;;15.52;;
67602;SDS011;54417;47.454;18.918;2023-01-13T00:26:00;29.33;;;16.38;;
67602;SDS011;54417;47.454;18.918;2023-01-13T00:31:27;29.63;;;16.50;;
67602;SDS011;54417;47.454;18.918;2023-01-13T00:36:52;26.67;;;15.77;;
67602;SDS011;54417;47.454;18.918;2023-01-13T00:42:17;28.98;;;18.67;;
67602;SDS011;54417;47.454;18.918;2023-01-13T00:47:58;31.40;;;18.67;;
67602;SDS011;54417;47.454;18.918;2023-01-13T00:53:22;38.13;;;20.42;;
67602;SDS011;54417;47.454;18.918;2023-01-13T00:58:47;36.08;;;19.17;;
67602;SDS011;54417;47.454;18.918;2023-01-13T01:04:13;52.13;;;25.65;;
67602;SDS011;54417;47.454;18.918;2023-01-13T01:09:36;62.83;;;26.80;;
67602;SDS011;54417;47.454;18.918;2023-01-13T01:15:02;53.55;;;27.98;;
67602;SDS011;54417;47.454;18.918;2023-01-13T01:20:27;50.60;;;25.17;;
67602;SDS011;54417;47.454;18.918;2023-01-13T01:25:51;51.60;;;25.30;;
67602;SDS011;54417;47.454;18.918;2023-01-13T01:31:16;42.97;;;21.95;;
67602;SDS011;54417;47.454;18.918;2023-01-13T01:36:42;34.65;;;19.63;;
67602;SDS011;54417;47.454;18.918;2023-01-13T01:42:05;28.83;;;17.67;;
67602;SDS011;54417;47.454;18.918;2023-01-13T01:47:55;25.70;;;15.35;;
67602;SDS011;54417;47.454;18.918;2023-01-13T01:53:21;20.05;;;12.95;;
67602;SDS011;54417;47.454;18.918;2023-01-13T01:58:48;19.95;;;11.27;;
67602;SDS011;54417;47.454;18.918;2023-01-13T02:04:17;20.90;;;11.45;;
67602;SDS011;54417;47.454;18.918;2023-01-13T02:09:45;22.57;;;10.97;;
67602;SDS011;54417;47.454;18.918;2023-01-13T02:15:11;20.02;;;12.40;;
67602;SDS011;54417;47.454;18.918;2023-01-13T02:20:49;20.83;;;11.70;;
67602;SDS011;54417;47.454;18.918;2023-01-13T02:26:48;20.38;;;12.82;;
67602;SDS011;54417;47.454;18.918;2023-01-13T02:32:32;20.63;;;12.70;;
67602;SDS011;54417;47.454;18.918;2023-01-13T02:38:01;19.20;;;10.82;;
67602;SDS011;54417;47.454;18.918;2023-01-13T02:43:27;20.75;;;11.68;;
67602;SDS011;54417;47.454;18.918;2023-01-13T02:49:15;21.52;;;11.25;;
67602;SDS011;54417;47.454;18.918;2023-01-13T02:54:45;21.38;;;11.27;;
67602;SDS011;54417;47.454;18.918;2023-01-13T03:00:14;24.85;;;12.57;;
67602;SDS011;54417;47.454;18.918;2023-01-13T03:05:40;26.55;;;11.98;;
67602;SDS011;54417;47.454;18.918;2023-01-13T03:11:06;20.30;;;10.85;;
67602;SDS011;54417;47.454;18.918;2023-01-13T03:16:35;14.10;;;10.15;;
67602;SDS011;54417;47.454;18.918;2023-01-13T03:22:13;20.25;;;10.65;;
67602;SDS011;54417;47.454;18.918;2023-01-13T03:27:45;23.25;;;10.60;;
67602;SDS011;54417;47.454;18.918;2023-01-13T03:33:14;20.50;;;11.05;;
67602;SDS011;54417;47.454;18.918;2023-01-13T03:38:43;20.88;;;11.75;;
67602;SDS011;54417;47.454;18.918;2023-01-13T03:44:10;19.00;;;10.68;;
67602;SDS011;54417;47.454;18.918;2023-01-13T03:49:45;21.20;;;11.95;;
67602;SDS011;54417;47.454;18.918;2023-01-13T03:55:17;27.40;;;12.30;;
67602;SDS011;54417;47.454;18.918;2023-01-13T04:00:46;25.50;;;13.48;;
67602;SDS011;54417;47.454;18.918;2023-01-13T04:06:17;20.80;;;13.77;;
67602;SDS011;54417;47.454;18.918;2023-01-13T04:11:50;25.90;;;14.77;;
67602;SDS011;54417;47.454;18.918;2023-01-13T04:17:18;25.90;;;14.73;;
67602;SDS011;54417;47.454;18.918;2023-01-13T04:22:42;29.38;;;15.13;;
67602;SDS011;54417;47.454;18.918;2023-01-13T04:28:07;22.90;;;13.73;;
67602;SDS011;54417;47.454;18.918;2023-01-13T04:33:31;22.65;;;13.60;;
67602;SDS011;54417;47.454;18.918;2023-01-13T04:38:54;24.67;;;14.45;;
67602;SDS011;54417;47.454;18.918;2023-01-13T04:44:20;27.73;;;15.55;;
67602;SDS011;54417;47.454;18.918;2023-01-13T04:49:43;28.40;;;16.35;;
67602;SDS011;54417;47.454;18.918;2023-01-13T04:55:08;30.80;;;16.35;;
67602;SDS011;54417;47.454;18.918;2023-01-13T05:00:34;26.60;;;15.02;;
67602;SDS011;54417;47.454;18.918;2023-01-13T05:05:58;28.70;;;14.63;;
67602;SDS011;54417;47.454;18.918;2023-01-13T05:11:22;22.92;;;13.95;;
67602;SDS011;54417;47.454;18.918;2023-01-13T05:17:07;24.25;;;14.85;;
67602;SDS011;54417;47.454;18.918;2023-01-13T05:22:32;19.77;;;12.25;;
67602;SDS011;54417;47.454;18.918;2023-01-13T05:28:13;19.17;;;12.27;;
67602;SDS011;54417;47.454;18.918;2023-01-13T05:33:39;22.00;;;13.48;;
67602;SDS011;54417;47.454;18.918;2023-01-13T05:39:03;22.48;;;13.50;;
67602;SDS011;54417;47.454;18.918;2023-01-13T05:44:27;22.63;;;14.20;;
67602;SDS011;54417;47.454;18.918;2023-01-13T05:49:52;28.35;;;15.68;;
67602;SDS011;54417;47.454;18.918;2023-01-13T05:55:16;24.73;;;14.68;;
67602;SDS011;54417;47.454;18.918;2023-01-13T06:00:40;24.52;;;14.52;;
67602;SDS011;54417;47.454;18.918;2023-01-13T06:06:05;27.85;;;14.68;;
67602;SDS011;54417;47.454;18.918;2023-01-13T06:11:30;26.00;;;16.42;;
67602;SDS011;54417;47.454;18.918;2023-01-13T06:16:54;25.60;;;13.82;;
67602;SDS011;54417;47.454;18.918;2023-01-13T06:22:20;34.60;;;17.42;;
67602;SDS011;54417;47.454;18.918;2023-01-13T06:27:47;33.97;;;17.90;;
67602;SDS011;54417;47.454;18.918;2023-01-13T06:33:12;38.40;;;18.25;;
67602;SDS011;54417;47.454;18.918;2023-01-13T06:38:39;52.45;;;19.83;;
67602;SDS011;54417;47.454;18.918;2023-01-13T06:44:07;44.33;;;22.05;;
67602;SDS011;54417;47.454;18.918;2023-01-13T06:49:31;45.75;;;22.30;;
67602;SDS011;54417;47.454;18.918;2023-01-13T06:54:57;33.92;;;20.52;;
67602;SDS011;54417;47.454;18.918;2023-01-13T07:00:21;34.63;;;18.63;;
67602;SDS011;54417;47.454;18.918;2023-01-13T07:05:50;33.28;;;21.52;;
67602;SDS011;54417;47.454;18.918;2023-01-13T07:11:16;36.33;;;20.80;;
67602;SDS011;54417;47.454;18.918;2023-01-13T07:16:40;36.40;;;20.20;;
67602;SDS011;54417;47.454;18.918;2023-01-13T07:22:05;36.40;;;22.23;;
67602;SDS011;54417;47.454;18.918;2023-01-13T07:27:31;39.05;;;21.00;;
67602;SDS011;54417;47.454;18.918;2023-01-13T07:32:54;37.33;;;21.65;;
67602;SDS011;54417;47.454;18.918;2023-01-13T07:38:18;41.55;;;23.92;;
67602;SDS011;54417;47.454;18.918;2023-01-13T07:43:43;40.92;;;20.35;;
67602;SDS011;54417;47.454;18.918;2023-01-13T07:49:07;28.10;;;17.55;;
67602;SDS011;54417;47.454;18.918;2023-01-13T07:54:31;26.05;;;17.35;;
67602;SDS011;54417;47.454;18.918;2023-01-13T08:00:04;28.55;;;18.73;;
67602;SDS011;54417;47.454;18.918;2023-01-13T08:05:28;32.58;;;18.60;;
67602;SDS011;54417;47.454;18.918;2023-01-13T08:10:52;27.02;;;16.80;;
67602;SDS011;54417;47.454;18.918;2023-01-13T08:16:17;27.00;;;14.98;;
67602;SDS011;54417;47.454;18.918;2023-01-13T08:21:41;34.47;;;18.80;;
67602;SDS011;54417;47.454;18.918;2023-01-13T08:27:05;32.78;;;18.30;;
67602;SDS011;54417;47.454;18.918;2023-01-13T08:32:30;30.10;;;18.60;;
67602;SDS011;54417;47.454;18.918;2023-01-13T08:37:55;24.95;;;16.48;;
67602;SDS011;54417;47.454;18.918;2023-01-13T08:43:19;24.98;;;16.17;;
67602;SDS011;54417;47.454;18.918;2023-01-13T08:48:44;28.85;;;17.08;;
67602;SDS011;54417;47.454;18.918;2023-01-13T08:54:11;26.63;;;16.35;;
67602;SDS011;54417;47.454;18.918;2023-01-13T08:59:35;29.60;;;16.88;;
67602;SDS011;54417;47.454;18.918;2023-01-13T09:05:00;28.98;;;17.65;;
67602;SDS011;54417;47.454;18.918;2023-01-13T09:10:25;25.83;;;16.70;;
67602;SDS011;54417;47.454;18.918;2023-01-13T09:15:49;27.98;;;15.85;;
67602;SDS011;54417;47.454;18.918;2023-01-13T09:21:18;26.63;;;17.98;;
67602;SDS011;54417;47.454;18.918;2023-01-13T09:26:42;32.78;;;17.00;;
67602;SDS011;54417;47.454;18.918;2023-01-13T09:32:08;26.80;;;18.00;;
67602;SDS011;54417;47.454;18.918;2023-01-13T09:37:36;29.42;;;18.25;;
67602;SDS011;54417;47.454;18.918;2023-01-13T09:43:02;31.98;;;19.00;;
67602;SDS011;54417;47.454;18.918;2023-01-13T09:48:51;28.25;;;18.13;;
67602;SDS011;54417;47.454;18.918;2023-01-13T09:54:19;28.27;;;19.48;;
67602;SDS011;54417;47.454;18.918;2023-01-13T09:59:53;29.38;;;18.63;;
67602;SDS011;54417;47.454;18.918;2023-01-13T10:05:18;30.95;;;18.52;;
67602;SDS011;54417;47.454;18.918;2023-01-13T10:10:52;31.50;;;19.83;;
67602;SDS011;54417;47.454;18.918;2023-01-13T10:16:21;31.27;;;19.98;;
67602;SDS011;54417;47.454;18.918;2023-01-13T10:27:54;29.33;;;18.23;;
67602;SDS011;54417;47.454;18.918;2023-01-13T10:33:25;29.52;;;17.63;;
67602;SDS011;54417;47.454;18.918;2023-01-13T10:38:50;33.83;;;18.75;;
67602;SDS011;54417;47.454;18.918;2023-01-13T10:44:16;35.45;;;19.27;;
67602;SDS011;54417;47.454;18.918;2023-01-13T10:49:40;30.85;;;17.83;;
67602;SDS011;54417;47.454;18.918;2023-01-13T10:55:12;32.88;;;17.75;;
67602;SDS011;54417;47.454;18.918;2023-01-13T11:00:50;32.67;;;18.90;;
67602;SDS011;54417;47.454;18.918;2023-01-13T11:06:23;26.80;;;15.75;;
67602;SDS011;54417;47.454;18.918;2023-01-13T11:11:49;32.53;;;17.85;;
67602;SDS011;54417;47.454;18.918;2023-01-13T11:17:28;31.50;;;18.10;;
67602;SDS011;54417;47.454;18.918;2023-01-13T11:22:56;35.85;;;19.35;;
67602;SDS011;54417;47.454;18.918;2023-01-13T11:28:34;33.22;;;17.95;;
67602;SDS011;54417;47.454;18.918;2023-01-13T11:34:07;34.25;;;17.73;;
67602;SDS011;54417;47.454;18.918;2023-01-13T11:39:49;32.58;;;18.38;;
67602;SDS011;54417;47.454;18.918;2023-01-13T11:45:19;28.42;;;16.52;;
67602;SDS011;54417;47.454;18.918;2023-01-13T11:50:48;28.27;;;16.30;;
67602;SDS011;54417;47.454;18.918;2023-01-13T11:56:30;29.85;;;18.38;;
67602;SDS011;54417;47.454;18.918;2023-01-13T12:02:18;30.90;;;18.83;;
67602;SDS011;54417;47.454;18.918;2023-01-13T12:07:54;38.15;;;20.80;;
67602;SDS011;54417;47.454;18.918;2023-01-13T12:13:28;28.77;;;16.80;;
67602;SDS011;54417;47.454;18.918;2023-01-13T12:19:10;30.85;;;17.90;;
67602;SDS011;54417;47.454;18.918;2023-01-13T12:24:44;36.38;;;20.83;;
67602;SDS011;54417;47.454;18.918;2023-01-13T12:30:16;33.33;;;20.25;;
67602;SDS011;54417;47.454;18.918;2023-01-13T12:35:46;39.22;;;20.95;;
67602;SDS011;54417;47.454;18.918;2023-01-13T12:41:21;36.38;;;22.50;;
67602;SDS011;54417;47.454;18.918;2023-01-13T12:46:58;38.25;;;22.17;;
67602;SDS011;54417;47.454;18.918;2023-01-13T12:52:22;37.88;;;21.42;;
67602;SDS011;54417;47.454;18.918;2023-01-13T12:57:59;35.67;;;20.95;;
67602;SDS011;54417;47.454;18.918;2023-01-13T13:03:36;33.80;;;21.30;;
67602;SDS011;54417;47.454;18.918;2023-01-13T13:09:00;36.55;;;21.67;;
67602;SDS011;54417;47.454;18.918;2023-01-13T13:26:20;40.70;;;24.98;;
67602;SDS011;54417;47.454;18.918;2023-01-13T13:37:49;45.50;;;25.48;;
67602;SDS011;54417;47.454;18.918;2023-01-13T13:43:40;39.30;;;23.88;;
67602;SDS011;54417;47.454;18.918;2023-01-13T13:49:33;49.70;;;25.92;;
67602;SDS011;54417;47.454;18.918;2023-01-13T13:55:04;41.22;;;23.23;;
67602;SDS011;54417;47.454;18.918;2023-01-13T14:00:34;40.97;;;23.48;;
67602;SDS011;54417;47.454;18.918;2023-01-13T14:06:00;42.33;;;24.15;;
67602;SDS011;54417;47.454;18.918;2023-01-13T14:11:27;41.45;;;23.92;;
67602;SDS011;54417;47.454;18.918;2023-01-13T14:16:53;43.38;;;23.58;;
67602;SDS011;54417;47.454;18.918;2023-01-13T14:22:17;43.40;;;23.83;;
67602;SDS011;54417;47.454;18.918;2023-01-13T14:27:43;41.28;;;23.98;;
67602;SDS011;54417;47.454;18.918;2023-01-13T14:33:07;41.20;;;24.17;;
67602;SDS011;54417;47.454;18.918;2023-01-13T14:38:37;41.50;;;23.67;;
67602;SDS011;54417;47.454;18.918;2023-01-13T14:44:07;39.38;;;22.42;;
67602;SDS011;54417;47.454;18.918;2023-01-13T14:49:42;37.75;;;21.38;;
67602;SDS011;54417;47.454;18.918;2023-01-13T14:55:28;40.92;;;21.67;;
67602;SDS011;54417;47.454;18.918;2023-01-13T15:06:53;31.60;;;19.42;;
67602;SDS011;54417;47.454;18.918;2023-01-13T15:12:21;50.28;;;26.23;;
67602;SDS011;54417;47.454;18.918;2023-01-13T15:17:53;41.67;;;21.13;;
67602;SDS011;54417;47.454;18.918;2023-01-13T15:23:18;61.58;;;26.88;;
67602;SDS011;54417;47.454;18.918;2023-01-13T15:28:42;70.50;;;29.55;;
67602;SDS011;54417;47.454;18.918;2023-01-13T15:34:07;85.57;;;38.80;;
67602;SDS011;54417;47.454;18.918;2023-01-13T15:39:31;86.82;;;40.78;;
67602;SDS011;54417;47.454;18.918;2023-01-13T15:44:56;102.70;;;40.97;;
67602;SDS011;54417;47.454;18.918;2023-01-13T15:50:39;38.55;;;21.38;;
67602;SDS011;54417;47.454;18.918;2023-01-13T15:56:03;40.05;;;21.95;;
67602;SDS011;54417;47.454;18.918;2023-01-13T16:01:31;47.80;;;24.05;;
67602;SDS011;54417;47.454;18.918;2023-01-13T16:06:56;41.92;;;22.00;;
67602;SDS011;54417;47.454;18.918;2023-01-13T16:12:21;51.78;;;23.98;;
67602;SDS011;54417;47.454;18.918;2023-01-13T16:17:45;64.78;;;30.45;;
67602;SDS011;54417;47.454;18.918;2023-01-13T16:23:11;48.03;;;25.23;;
67602;SDS011;54417;47.454;18.918;2023-01-13T16:28:36;44.10;;;22.10;;
67602;SDS011;54417;47.454;18.918;2023-01-13T16:34:00;44.90;;;22.67;;
67602;SDS011;54417;47.454;18.918;2023-01-13T16:39:26;57.10;;;26.15;;
67602;SDS011;54417;47.454;18.918;2023-01-13T16:44:51;46.95;;;23.65;;
67602;SDS011;54417;47.454;18.918;2023-01-13T16:50:19;47.45;;;22.80;;
67602;SDS011;54417;47.454;18.918;2023-01-13T16:55:54;48.08;;;22.80;;
67602;SDS011;54417;47.454;18.918;2023-01-13T17:01:19;49.97;;;23.27;;
67602;SDS011;54417;47.454;18.918;2023-01-13T17:06:47;51.03;;;24.55;;
67602;SDS011;54417;47.454;18.918;2023-01-13T17:12:17;46.72;;;22.75;;
67602;SDS011;54417;47.454;18.918;2023-01-13T17:17:40;48.45;;;23.92;;
67602;SDS011;54417;47.454;18.918;2023-01-13T17:23:08;45.45;;;24.27;;
67602;SDS011;54417;47.454;18.918;2023-01-13T17:28:33;52.45;;;20.88;;
67602;SDS011;54417;47.454;18.918;2023-01-13T17:33:57;53.42;;;23.23;;
67602;SDS011;54417;47.454;18.918;2023-01-13T17:39:21;44.70;;;21.92;;
67602;SDS011;54417;47.454;18.918;2023-01-13T17:44:48;39.03;;;20.67;;
67602;SDS011;54417;47.454;18.918;2023-01-13T17:50:12;46.95;;;22.52;;
67602;SDS011;54417;47.454;18.918;2023-01-13T17:55:36;45.25;;;24.15;;
67602;SDS011;54417;47.454;18.918;2023-01-13T18:01:01;46.72;;;23.10;;
67602;SDS011;54417;47.454;18.918;2023-01-13T18:06:30;44.25;;;23.30;;
67602;SDS011;54417;47.454;18.918;2023-01-13T18:11:54;44.85;;;23.70;;
67602;SDS011;54417;47.454;18.918;2023-01-13T18:17:19;43.08;;;24.15;;
67602;SDS011;54417;47.454;18.918;2023-01-13T18:22:43;40.63;;;22.70;;
67602;SDS011;54417;47.454;18.918;2023-01-13T18:28:23;43.83;;;22.73;;
67602;SDS011;54417;47.454;18.918;2023-01-13T18:33:49;40.65;;;21.95;;
67602;SDS011;54417;47.454;18.918;2023-01-13T18:39:13;40.67;;;22.77;;
67602;SDS011;54417;47.454;18.918;2023-01-13T18:44:36;42.97;;;21.48;;
67602;SDS011;54417;47.454;18.918;2023-01-13T18:50:02;44.83;;;20.70;;
67602;SDS011;54417;47.454;18.918;2023-01-13T18:55:26;43.65;;;23.35;;
67602;SDS011;54417;47.454;18.918;2023-01-13T19:00:58;46.88;;;22.15;;
67602;SDS011;54417;47.454;18.918;2023-01-13T19:06:24;60.72;;;31.05;;
67602;SDS011;54417;47.454;18.918;2023-01-13T19:11:53;45.78;;;23.45;;
67602;SDS011;54417;47.454;18.918;2023-01-13T19:17:18;44.08;;;23.98;;
67602;SDS011;54417;47.454;18.918;2023-01-13T19:22:44;52.75;;;28.10;;
67602;SDS011;54417;47.454;18.918;2023-01-13T19:28:15;50.15;;;25.23;;
67602;SDS011;54417;47.454;18.918;2023-01-13T19:33:38;41.75;;;23.67;;
67602;SDS011;54417;47.454;18.918;2023-01-13T19:39:04;41.75;;;23.88;;
67602;SDS011;54417;47.454;18.918;2023-01-13T19:44:27;48.08;;;23.45;;
67602;SDS011;54417;47.454;18.918;2023-01-13T19:50:09;41.90;;;23.43;;
67602;SDS011;54417;47.454;18.918;2023-01-13T19:55:34;55.15;;;28.38;;
67602;SDS011;54417;47.454;18.918;2023-01-13T20:00:58;55.55;;;29.50;;
67602;SDS011;54417;47.454;18.918;2023-01-13T20:11:55;44.22;;;23.20;;
67602;SDS011;54417;47.454;18.918;2023-01-13T20:17:20;42.85;;;22.13;;
67602;SDS011;54417;47.454;18.918;2023-01-13T20:22:44;44.00;;;23.55;;
67602;SDS011;54417;47.454;18.918;2023-01-13T20:28:12;48.70;;;27.40;;
67602;SDS011;54417;47.454;18.918;2023-01-13T20:33:36;40.60;;;21.45;;
67602;SDS011;54417;47.454;18.918;2023-01-13T20:39:01;58.90;;;26.77;;
67602;SDS011;54417;47.454;18.918;2023-01-13T20:44:28;54.47;;;26.92;;
67602;SDS011;54417;47.454;18.918;2023-01-13T20:49:51;52.17;;;23.45;;
67602;SDS011;54417;47.454;18.918;2023-01-13T20:55:15;34.55;;;21.50;;
67602;SDS011;54417;47.454;18.918;2023-01-13T21:00:41;42.50;;;23.00;;
67602;SDS011;54417;47.454;18.918;2023-01-13T21:06:05;48.60;;;25.50;;
67602;SDS011;54417;47.454;18.918;2023-01-13T21:11:29;53.22;;;25.85;;
67602;SDS011;54417;47.454;18.918;2023-01-13T21:17:12;55.92;;;28.50;;
67602;SDS011;54417;47.454;18.918;2023-01-13T21:23:03;52.95;;;26.60;;
67602;SDS011;54417;47.454;18.918;2023-01-13T21:28:27;52.00;;;26.92;;
67602;SDS011;54417;47.454;18.918;2023-01-13T21:33:54;51.78;;;25.70;;
67602;SDS011;54417;47.454;18.918;2023-01-13T21:39:20;43.42;;;24.52;;
67602;SDS011;54417;47.454;18.918;2023-01-13T21:44:44;48.92;;;27.33;;
67602;SDS011;54417;47.454;18.918;2023-01-13T21:50:27;57.42;;;29.20;;
67602;SDS011;54417;47.454;18.918;2023-01-13T21:55:51;57.60;;;29.98;;
67602;SDS011;54417;47.454;18.918;2023-01-13T22:01:15;61.83;;;30.83;;
67602;SDS011;54417;47.454;18.918;2023-01-13T22:06:40;57.15;;;29.27;;
67602;SDS011;54417;47.454;18.918;2023-01-13T22:12:04;60.08;;;30.67;;
67602;SDS011;54417;47.454;18.918;2023-01-13T22:17:28;54.70;;;28.85;;
67602;SDS011;54417;47.454;18.918;2023-01-13T22:22:55;64.90;;;30.73;;
67602;SDS011;54417;47.454;18.918;2023-01-13T22:28:20;56.30;;;28.30;;
67602;SDS011;54417;47.454;18.918;2023-01-13T22:33:46;51.80;;;28.02;;
67602;SDS011;54417;47.454;18.918;2023-01-13T22:39:11;66.93;;;34.90;;
67602;SDS011;54417;47.454;18.918;2023-01-13T22:44:35;77.07;;;35.28;;
67602;SDS011;54417;47.454;18.918;2023-01-13T22:49:59;59.15;;;30.88;;
67602;SDS011;54417;47.454;18.918;2023-01-13T22:55:24;63.40;;;32.03;;
67602;SDS011;54417;47.454;18.918;2023-01-13T23:00:48;60.38;;;30.80;;
67602;SDS011;54417;47.454;18.918;2023-01-13T23:06:12;60.33;;;33.75;;
67602;SDS011;54417;47.454;18.918;2023-01-13T23:11:38;71.82;;;30.92;;
67602;SDS011;54417;47.454;18.918;2023-01-13T23:17:02;59.17;;;31.38;;
67602;SDS011;54417;47.454;18.918;2023-01-13T23:22:28;64.95;;;31.40;;
67602;SDS011;54417;47.454;18.918;2023-01-13T23:27:53;68.38;;;29.80;;
67602;SDS011;54417;47.454;18.918;2023-01-13T23:33:18;54.20;;;30.52;;
67602;SDS011;54417;47.454;18.918;2023-01-13T23:38:43;60.40;;;30.73;;
67602;SDS011;54417;47.454;18.918;2023-01-13T23:44:08;52.17;;;28.15;;
67602;SDS011;54417;47.454;18.918;2023-01-13T23:49:32;54.08;;;29.05;;
67602;SDS011;54417;47.454;18.918;2023-01-13T23:54:56;49.80;;;28.17;;
